KJVW

John Bell Williams Airport

Raymond, Mississippi, USA
METAR KJVW 170555Z AUTO 13005KT 10SM FEW100 11/01 A3011 RMK AO2
Observed Flight Rules
Dec-17 @ 05:55 UTC (27 minutes ago) Visual Flight Rules
Wind Visibility Clouds
130° at 5 knots 10 miles
  • Few at 10,000' AGL
Temperatures Readings
Current 11°C / 52°F
Dewpoint 1°C / 34°F
Humidity 50%
Altimeter 30.11" Hg
Pressure 1020 hPa
Elevation 76
METAR KJVW 170555Z AUTO 13005KT 10SM FEW100 11/01 A3011 RMK AO2
Observed Flight Rules
Dec-17 @ 05:55 UTC
(27 minutes ago)
VFR
Wind Visibility
130° at 5 knots 10 miles
Clouds
  • Few at 10,000' AGL
Temperature Dewpoint
11°C / 52°F 1°C / 34°F
Humidity Altimeter Pressure
50% 30.11" Hg 1020 hPa